Time;durP1;ratioP1;P1;durP2;ratioP2;P2;SDS_P1;SDS_P2;PMS_P1;PMS_P2;Temp;Humidity;BMP_temperature;BMP_pressure;BME280_temperature;BME280_humidity;BME280_pressure;Samples;Min_cycle;Max_cycle;Signal;HPM_P1;HPM_P2
2023/08/11 00:01:46;;;;;;;13.65;12.25;;;17.50;99.90;;;;;;5036886;28;20045;-81
2023/08/11 00:04:14;;;;;;;13.35;12.05;;;17.40;99.90;;;;;;5035248;28;20040;-81
2023/08/11 00:06:39;;;;;;;14.45;13.00;;;17.40;99.90;;;;;;5018290;28;20043;-81
2023/08/11 00:09:08;;;;;;;16.02;13.85;;;17.30;99.90;;;;;;5053106;28;20276;-81
2023/08/11 00:11:34;;;;;;;15.10;13.50;;;17.30;99.90;;;;;;5047507;28;20552;-81
2023/08/11 00:14:00;;;;;;;13.98;12.25;;;17.20;99.90;;;;;;5036168;28;20144;-81
2023/08/11 00:16:26;;;;;;;15.15;12.88;;;17.20;99.90;;;;;;5049299;28;20534;-81
2023/08/11 00:18:51;;;;;;;15.23;13.65;;;17.10;99.90;;;;;;5032277;28;20106;-81
2023/08/11 00:21:17;;;;;;;17.23;12.95;;;17.10;99.90;;;;;;5032906;28;20083;-81
2023/08/11 00:23:43;;;;;;;14.48;12.98;;;17.00;99.90;;;;;;5038849;28;20047;-81
2023/08/11 00:26:10;;;;;;;15.60;13.95;;;16.90;99.90;;;;;;5024023;28;20025;-81
2023/08/11 00:28:36;;;;;;;14.45;12.88;;;16.80;99.90;;;;;;5034567;28;20073;-81
2023/08/11 00:31:02;;;;;;;16.48;14.60;;;16.80;99.90;;;;;;5043868;28;20040;-81
2023/08/11 00:33:28;;;;;;;17.55;15.05;;;16.70;99.90;;;;;;5058429;28;20032;-81
2023/08/11 00:35:54;;;;;;;18.40;15.15;;;16.70;99.90;;;;;;5034456;28;20480;-81
2023/08/11 00:38:22;;;;;;;18.17;15.73;;;16.60;99.90;;;;;;5017656;28;20044;-81
2023/08/11 00:40:48;;;;;;;18.52;14.98;;;16.50;99.90;;;;;;5055837;28;20059;-82
2023/08/11 00:43:14;;;;;;;16.92;14.52;;;16.50;99.90;;;;;;5057441;28;20045;-81
2023/08/11 00:45:45;;;;;;;15.55;13.95;;;16.40;99.90;;;;;;5050311;28;20562;-82
2023/08/11 00:48:11;;;;;;;17.25;15.45;;;16.40;99.90;;;;;;5050085;28;20040;-81
2023/08/11 00:50:37;;;;;;;16.40;14.75;;;16.40;99.90;;;;;;5014037;28;20057;-81
2023/08/11 00:53:03;;;;;;;16.65;14.30;;;16.30;99.90;;;;;;5040667;28;20048;-81
2023/08/11 00:55:29;;;;;;;15.85;14.15;;;16.30;99.90;;;;;;5030477;28;20073;-81
2023/08/11 00:57:54;;;;;;;18.27;14.73;;;16.20;99.90;;;;;;5041872;28;20079;-81
2023/08/11 01:00:21;;;;;;;18.25;14.95;;;16.20;99.90;;;;;;5033868;28;20041;-81
2023/08/11 01:02:46;;;;;;;17.02;14.70;;;16.20;99.90;;;;;;5050748;28;20079;-82
2023/08/11 01:05:14;;;;;;;16.05;14.35;;;16.20;99.90;;;;;;4998045;28;20469;-81
2023/08/11 01:07:40;;;;;;;16.58;14.85;;;16.10;99.90;;;;;;5050092;28;20120;-81
2023/08/11 01:10:22;;;;;;;16.65;14.95;;;16.10;99.90;;;;;;5034539;28;20124;-81
2023/08/11 01:13:13;;;;;;;18.25;15.07;;;16.10;99.90;;;;;;5050513;28;20040;-81
2023/08/11 01:15:43;;;;;;;17.67;15.82;;;16.00;99.90;;;;;;5054956;28;20072;-81
2023/08/11 01:18:10;;;;;;;17.35;15.48;;;16.00;99.90;;;;;;5033453;28;20084;-82
2023/08/11 01:20:36;;;;;;;19.45;16.02;;;15.90;99.90;;;;;;5036394;28;20289;-81
2023/08/11 01:23:06;;;;;;;19.08;17.08;;;15.90;99.90;;;;;;5042130;28;20098;-81
2023/08/11 01:25:33;;;;;;;17.83;15.73;;;15.90;99.90;;;;;;5033260;28;20051;-81
2023/08/11 01:28:00;;;;;;;18.13;16.08;;;15.80;99.90;;;;;;5033064;28;20488;-81
2023/08/11 01:30:27;;;;;;;20.08;16.08;;;15.80;99.90;;;;;;5060635;28;20032;-81
2023/08/11 01:32:53;;;;;;;18.83;16.83;;;15.70;99.90;;;;;;5062575;28;20044;-81
2023/08/11 01:35:20;;;;;;;19.42;17.38;;;15.70;99.90;;;;;;5052286;28;20178;-81
2023/08/11 01:37:47;;;;;;;19.55;17.55;;;15.70;99.90;;;;;;5033768;28;20446;-81
2023/08/11 01:40:14;;;;;;;20.80;17.92;;;15.80;99.90;;;;;;5024589;28;20036;-82
2023/08/11 01:42:42;;;;;;;18.88;16.88;;;15.80;99.90;;;;;;5039784;28;20096;-82
2023/08/11 01:45:09;;;;;;;19.50;17.40;;;15.80;99.90;;;;;;5017493;28;20093;-81
2023/08/11 01:47:40;;;;;;;18.30;16.30;;;15.70;99.90;;;;;;5033642;28;20487;-81
2023/08/11 01:50:10;;;;;;;17.73;15.93;;;15.80;99.90;;;;;;5037875;28;20185;-82
2023/08/11 01:52:41;;;;;;;19.25;17.25;;;15.80;99.90;;;;;;5033398;28;20072;-81
2023/08/11 01:55:09;;;;;;;24.13;17.73;;;15.80;99.90;;;;;;5052728;28;20057;-81
2023/08/11 01:57:36;;;;;;;17.98;15.35;;;15.70;99.90;;;;;;5056180;28;20508;-81
2023/08/11 02:00:07;;;;;;;22.17;17.25;;;15.70;99.90;;;;;;5033591;28;20404;-82
2023/08/11 02:02:33;;;;;;;17.85;15.73;;;15.70;99.90;;;;;;5023934;28;20079;-81
2023/08/11 02:04:58;;;;;;;17.85;16.00;;;15.70;99.90;;;;;;5033316;28;20471;-82
2023/08/11 02:07:24;;;;;;;19.70;16.63;;;15.60;99.90;;;;;;5033124;28;20480;-81
2023/08/11 02:09:54;;;;;;;18.13;16.17;;;15.60;99.90;;;;;;5036370;28;20081;-82
2023/08/11 02:12:20;;;;;;;18.25;16.35;;;15.60;99.90;;;;;;5026251;28;20041;-81
2023/08/11 02:14:46;;;;;;;19.17;16.60;;;15.60;99.90;;;;;;5023889;28;20044;-81
2023/08/11 02:17:11;;;;;;;19.13;17.02;;;15.60;99.90;;;;;;5033225;28;20068;-81
2023/08/11 02:19:37;;;;;;;19.80;15.90;;;15.50;99.90;;;;;;5053663;28;20045;-81
2023/08/11 02:22:03;;;;;;;20.90;16.77;;;15.50;99.90;;;;;;5040387;28;20049;-82
2023/08/11 02:24:29;;;;;;;18.88;16.90;;;15.40;99.90;;;;;;5027319;28;20048;-81
2023/08/11 02:26:56;;;;;;;20.45;17.63;;;15.40;99.90;;;;;;5057501;28;20032;-81
2023/08/11 02:29:22;;;;;;;20.70;17.95;;;15.40;99.90;;;;;;5045871;28;20036;-82
2023/08/11 02:31:48;;;;;;;20.35;17.75;;;15.40;99.90;;;;;;5036319;28;20610;-81
2023/08/11 02:34:14;;;;;;;19.83;17.60;;;15.30;99.90;;;;;;5050394;28;20491;-82
2023/08/11 02:36:40;;;;;;;18.65;16.73;;;15.30;99.90;;;;;;5060783;28;20045;-82
2023/08/11 02:39:06;;;;;;;18.95;16.98;;;15.30;99.90;;;;;;5035632;28;20044;-81
2023/08/11 02:41:33;;;;;;;21.35;17.83;;;15.30;99.90;;;;;;5029041;28;20107;-81
2023/08/11 02:43:58;;;;;;;20.58;17.85;;;15.30;99.90;;;;;;5032744;28;20046;-81
2023/08/11 02:46:24;;;;;;;19.20;16.95;;;15.20;99.90;;;;;;5017236;28;20037;-81
2023/08/11 02:48:50;;;;;;;22.20;17.58;;;15.20;99.90;;;;;;5019999;28;20417;-82
2023/08/11 02:51:16;;;;;;;20.75;16.90;;;15.20;99.90;;;;;;5015858;28;20113;-81
2023/08/11 02:53:41;;;;;;;18.00;16.10;;;15.20;99.90;;;;;;5004292;28;20045;-81
2023/08/11 02:56:09;;;;;;;19.98;16.83;;;15.20;99.90;;;;;;5041632;28;20389;-81
2023/08/11 02:58:35;;;;;;;18.13;15.95;;;15.10;99.90;;;;;;5020543;28;20043;-81
2023/08/11 03:01:03;;;;;;;19.17;17.17;;;15.10;99.90;;;;;;5036548;28;20382;-81
2023/08/11 03:03:29;;;;;;;16.88;14.88;;;15.10;99.90;;;;;;5036233;28;20033;-81
2023/08/11 03:05:56;;;;;;;20.20;17.40;;;15.00;99.90;;;;;;5036283;28;20404;-81
2023/08/11 03:08:22;;;;;;;20.42;18.35;;;15.00;99.90;;;;;;5052798;28;20056;-81
2023/08/11 03:10:48;;;;;;;19.45;16.70;;;15.00;99.90;;;;;;5054990;28;20118;-81
2023/08/11 03:13:14;;;;;;;18.40;16.48;;;15.00;99.90;;;;;;5039463;28;20029;-81
2023/08/11 03:15:39;;;;;;;18.20;16.40;;;14.90;99.90;;;;;;5019828;28;20044;-81
2023/08/11 03:18:05;;;;;;;17.33;15.50;;;14.90;99.90;;;;;;5016163;28;20041;-81
2023/08/11 03:20:31;;;;;;;19.00;16.25;;;14.90;99.90;;;;;;5050468;28;20101;-81
2023/08/11 03:22:56;;;;;;;18.40;16.50;;;14.90;99.90;;;;;;5021173;28;20461;-81
2023/08/11 03:25:22;;;;;;;16.38;14.63;;;14.90;99.90;;;;;;5052087;28;20043;-81
2023/08/11 03:27:48;;;;;;;16.83;15.02;;;15.00;99.90;;;;;;5050964;28;20048;-81
2023/08/11 03:30:14;;;;;;;17.50;14.40;;;15.00;99.90;;;;;;5032634;28;20055;-82
2023/08/11 03:32:40;;;;;;;16.17;14.63;;;15.10;99.90;;;;;;5049712;28;20076;-81
2023/08/11 03:35:06;;;;;;;19.05;16.48;;;15.10;99.90;;;;;;5024353;28;20036;-81
2023/08/11 03:37:33;;;;;;;19.85;17.75;;;15.00;99.90;;;;;;5016484;28;20045;-81
2023/08/11 03:39:59;;;;;;;17.30;15.00;;;14.90;99.90;;;;;;5033491;28;20548;-81
2023/08/11 03:42:25;;;;;;;16.60;15.00;;;14.90;99.90;;;;;;5046582;28;20121;-81
2023/08/11 03:44:51;;;;;;;16.10;14.40;;;14.90;99.90;;;;;;5031257;28;20052;-81
2023/08/11 03:47:18;;;;;;;17.08;14.10;;;14.90;99.90;;;;;;5041471;28;20120;-81
2023/08/11 03:49:45;;;;;;;15.75;13.98;;;14.90;99.90;;;;;;5035364;28;20516;-81
2023/08/11 03:52:12;;;;;;;15.38;13.35;;;14.90;99.90;;;;;;5019546;28;20045;-81
2023/08/11 03:54:38;;;;;;;16.33;13.65;;;14.90;99.90;;;;;;5035362;28;20555;-81
2023/08/11 03:57:04;;;;;;;15.75;13.50;;;14.90;99.90;;;;;;5019561;28;20041;-81
2023/08/11 03:59:30;;;;;;;15.60;13.93;;;15.00;99.90;;;;;;5010824;28;20406;-82
2023/08/11 04:01:56;;;;;;;17.95;14.77;;;15.00;99.90;;;;;;4999434;28;20047;-81
2023/08/11 04:04:21;;;;;;;15.55;13.43;;;15.00;99.90;;;;;;5050829;28;20124;-81
2023/08/11 04:06:47;;;;;;;15.38;13.75;;;15.10;99.90;;;;;;5038394;28;20041;-81
2023/08/11 04:09:13;;;;;;;15.40;13.75;;;15.10;99.90;;;;;;5051570;28;20036;-81
2023/08/11 04:11:39;;;;;;;13.40;12.10;;;15.10;99.90;;;;;;5038642;28;20554;-81
2023/08/11 04:14:04;;;;;;;13.90;12.57;;;15.10;99.90;;;;;;5014213;28;20520;-81
2023/08/11 04:16:30;;;;;;;14.25;12.75;;;15.20;99.90;;;;;;5031742;28;20378;-81
2023/08/11 04:18:56;;;;;;;15.60;12.85;;;15.20;99.90;;;;;;5034272;28;20032;-81
2023/08/11 04:21:23;;;;;;;13.95;12.55;;;15.10;99.90;;;;;;5033815;28;20099;-81
2023/08/11 04:23:49;;;;;;;14.48;12.95;;;15.20;99.90;;;;;;5050520;28;20056;-81
2023/08/11 04:26:14;;;;;;;15.27;12.90;;;15.20;99.90;;;;;;5034305;28;20051;-80
2023/08/11 04:28:43;;;;;;;17.17;12.52;;;15.20;99.90;;;;;;5051659;28;20041;-81
2023/08/11 04:31:09;;;;;;;16.02;12.90;;;15.20;99.90;;;;;;5031804;28;20041;-80
2023/08/11 04:33:35;;;;;;;14.65;13.05;;;15.20;99.90;;;;;;5046813;28;20037;-81
2023/08/11 04:36:05;;;;;;;15.00;12.82;;;15.20;99.90;;;;;;5034557;28;20036;-81
2023/08/11 04:38:31;;;;;;;15.35;13.57;;;15.20;99.90;;;;;;5054516;28;20045;-81
2023/08/11 04:41:00;;;;;;;15.55;13.85;;;15.20;99.90;;;;;;5040245;28;20052;-81
2023/08/11 04:43:26;;;;;;;18.73;13.80;;;15.30;99.90;;;;;;5018109;28;20481;-81
2023/08/11 04:45:51;;;;;;;15.60;14.02;;;15.30;99.90;;;;;;5034424;28;20049;-81
2023/08/11 04:48:17;;;;;;;15.18;13.60;;;15.30;99.90;;;;;;5033134;28;20037;-81
2023/08/11 04:50:49;;;;;;;14.20;12.75;;;15.20;99.90;;;;;;5034784;28;20040;-81
2023/08/11 04:53:14;;;;;;;15.00;13.27;;;15.30;99.90;;;;;;5034365;28;20032;-82
2023/08/11 04:55:41;;;;;;;15.27;13.68;;;15.20;99.90;;;;;;5000540;28;20041;-82
2023/08/11 04:58:07;;;;;;;19.92;13.68;;;15.30;99.90;;;;;;4998784;28;20045;-81
2023/08/11 05:00:34;;;;;;;17.02;12.27;;;15.30;99.90;;;;;;5059717;28;20052;-81
2023/08/11 05:02:59;;;;;;;14.32;12.88;;;15.30;99.90;;;;;;5050396;28;20102;-81
2023/08/11 05:05:26;;;;;;;16.35;12.57;;;15.40;99.90;;;;;;5050237;28;20073;-80
2023/08/11 05:07:52;;;;;;;15.30;12.55;;;15.40;99.90;;;;;;5028109;28;20036;-81
2023/08/11 05:10:18;;;;;;;14.45;12.88;;;15.40;99.90;;;;;;5030707;28;20481;-81
2023/08/11 05:12:45;;;;;;;15.10;12.80;;;15.40;99.90;;;;;;5032615;28;20091;-81
2023/08/11 05:15:11;;;;;;;17.58;13.25;;;15.40;99.90;;;;;;5033452;28;20050;-81
2023/08/11 05:17:37;;;;;;;13.80;11.73;;;15.40;99.90;;;;;;5027960;28;20052;-81
2023/08/11 05:20:07;;;;;;;13.98;12.48;;;15.40;99.90;;;;;;5041348;28;20079;-81
2023/08/11 05:22:34;;;;;;;14.05;12.63;;;15.40;99.90;;;;;;5051444;28;20127;-81
2023/08/11 05:25:02;;;;;;;12.95;11.45;;;15.50;99.90;;;;;;5033698;28;20488;-81
2023/08/11 05:27:27;;;;;;;12.93;11.63;;;15.60;99.90;;;;;;5067695;28;20036;-81
2023/08/11 05:29:53;;;;;;;12.75;11.18;;;15.60;99.90;;;;;;5036103;28;20040;-81
2023/08/11 05:32:19;;;;;;;14.35;11.20;;;15.70;99.90;;;;;;5000840;28;20526;-81
2023/08/11 05:34:45;;;;;;;13.60;10.88;;;15.70;99.90;;;;;;5034892;28;20037;-82
2023/08/11 05:37:12;;;;;;;12.43;10.65;;;15.80;99.90;;;;;;5039731;28;20036;-81
2023/08/11 05:39:38;;;;;;;11.73;10.50;;;15.90;99.90;;;;;;5037650;28;20045;-81
2023/08/11 05:42:08;;;;;;;14.73;10.93;;;15.90;99.90;;;;;;4997959;28;20049;-81
2023/08/11 05:44:34;;;;;;;12.75;10.00;;;16.00;99.90;;;;;;5043823;28;20112;-81
2023/08/11 05:47:00;;;;;;;14.65;10.07;;;16.10;99.90;;;;;;5052018;28;20410;-81
2023/08/11 05:49:26;;;;;;;11.88;9.60;;;16.10;99.90;;;;;;5042412;28;20053;-81
2023/08/11 05:51:52;;;;;;;12.00;9.45;;;16.20;99.90;;;;;;5033866;28;20044;-82
2023/08/11 05:54:17;;;;;;;10.30;9.07;;;16.30;99.90;;;;;;5051071;28;20033;-81
2023/08/11 05:56:43;;;;;;;10.32;8.18;;;16.40;99.90;;;;;;5020109;28;20054;-82
2023/08/11 05:59:09;;;;;;;10.82;8.45;;;16.50;99.90;;;;;;5005087;28;20037;-81
2023/08/11 06:01:35;;;;;;;8.95;8.05;;;16.60;99.90;;;;;;5049799;28;20128;-81
2023/08/11 06:04:02;;;;;;;10.63;8.05;;;16.60;99.90;;;;;;5050123;28;20527;-81
2023/08/11 06:06:28;;;;;;;8.57;7.68;;;16.70;99.90;;;;;;5033450;28;20041;-82
2023/08/11 06:08:54;;;;;;;8.50;7.45;;;16.80;99.90;;;;;;5033157;28;20033;-81
2023/08/11 06:11:20;;;;;;;8.07;7.28;;;16.90;99.90;;;;;;5032395;28;20040;-81
2023/08/11 06:13:46;;;;;;;9.88;7.60;;;17.10;99.90;;;;;;5056289;28;20051;-81
2023/08/11 06:16:12;;;;;;;7.72;6.70;;;17.20;99.90;;;;;;5032672;28;20036;-81
2023/08/11 06:18:38;;;;;;;9.93;6.60;;;17.30;99.90;;;;;;5032277;28;20108;-81
2023/08/11 06:21:04;;;;;;;8.80;6.70;;;17.40;99.90;;;;;;5051324;28;20583;-82
2023/08/11 06:23:31;;;;;;;7.20;6.38;;;17.50;99.90;;;;;;5009773;28;20033;-81
2023/08/11 06:25:57;;;;;;;7.45;6.60;;;17.60;99.90;;;;;;5055808;28;20481;-83
2023/08/11 06:28:23;;;;;;;9.27;6.30;;;17.80;99.90;;;;;;5051880;28;20094;-82
2023/08/11 06:30:49;;;;;;;8.00;6.35;;;17.90;99.90;;;;;;5052069;28;20033;-81
2023/08/11 06:33:15;;;;;;;8.45;6.70;;;18.00;99.90;;;;;;5051481;28;20477;-81
2023/08/11 06:35:42;;;;;;;8.70;6.40;;;18.10;99.90;;;;;;5032914;28;20075;-82
2023/08/11 06:38:09;;;;;;;7.35;6.30;;;18.20;99.90;;;;;;5036336;28;20068;-83
2023/08/11 06:40:38;;;;;;;8.05;6.25;;;18.30;99.90;;;;;;5016264;28;20129;-81
2023/08/11 06:43:04;;;;;;;7.63;6.00;;;18.30;99.90;;;;;;5034077;28;20080;-81
2023/08/11 06:45:30;;;;;;;10.63;6.07;;;18.40;99.90;;;;;;5018963;28;20131;-82
2023/08/11 06:47:56;;;;;;;6.45;5.82;;;18.50;99.90;;;;;;5020752;28;20623;-81
2023/08/11 06:50:22;;;;;;;8.43;6.13;;;18.60;99.90;;;;;;5056033;28;20106;-82
2023/08/11 06:52:47;;;;;;;8.90;5.85;;;18.60;99.90;;;;;;5023192;28;20140;-81
2023/08/11 06:55:13;;;;;;;8.70;5.75;;;18.70;99.90;;;;;;5018765;28;20036;-81
2023/08/11 06:57:39;;;;;;;5.93;5.30;;;18.80;99.90;;;;;;5051063;28;20144;-80
2023/08/11 07:00:07;;;;;;;7.35;5.50;;;18.90;99.90;;;;;;5059750;28;20102;-81
2023/08/11 07:02:33;;;;;;;6.57;5.22;;;19.00;99.90;;;;;;5051743;28;20052;-82
2023/08/11 07:04:59;;;;;;;6.90;5.53;;;19.00;99.90;;;;;;5036921;28;20041;-81
2023/08/11 07:07:25;;;;;;;8.60;5.70;;;19.10;99.90;;;;;;5022129;28;20098;-80
2023/08/11 07:09:51;;;;;;;5.93;5.32;;;19.20;99.90;;;;;;5042057;28;20423;-81
2023/08/11 07:12:17;;;;;;;6.35;5.50;;;19.30;99.90;;;;;;5049036;28;20041;-83
2023/08/11 07:14:42;;;;;;;6.32;4.85;;;19.40;99.90;;;;;;5046693;28;20040;-84
2023/08/11 07:17:09;;;;;;;6.63;5.65;;;19.40;99.90;;;;;;5029856;28;20044;-84
2023/08/11 07:19:35;;;;;;;6.78;5.38;;;19.50;99.90;;;;;;5028976;28;20431;-82
2023/08/11 07:22:01;;;;;;;6.97;5.10;;;19.50;99.90;;;;;;5064103;28;20045;-82
2023/08/11 07:24:27;;;;;;;7.40;5.38;;;19.60;99.90;;;;;;5024194;28;20076;-84
2023/08/11 07:26:52;;;;;;;6.97;5.07;;;19.70;99.90;;;;;;5046800;28;20037;-81
2023/08/11 07:29:18;;;;;;;5.93;5.25;;;19.90;99.90;;;;;;5041286;28;20041;-82
2023/08/11 07:31:44;;;;;;;5.68;5.15;;;20.00;99.90;;;;;;5029076;28;21860;-82
2023/08/11 07:34:10;;;;;;;6.30;5.00;;;20.10;99.90;;;;;;5046622;28;20047;-84
2023/08/11 07:36:36;;;;;;;6.20;5.03;;;20.10;99.90;;;;;;5029875;28;20041;-81
2023/08/11 07:39:03;;;;;;;5.30;4.80;;;20.20;99.90;;;;;;5035130;28;20033;-82
2023/08/11 07:41:29;;;;;;;5.05;4.65;;;20.30;99.90;;;;;;5035910;28;20051;-82
2023/08/11 07:43:54;;;;;;;5.60;4.93;;;20.40;99.90;;;;;;5039480;28;20404;-82
2023/08/11 07:46:20;;;;;;;6.68;5.20;;;20.50;99.90;;;;;;5047646;28;20037;-81
2023/08/11 07:48:46;;;;;;;6.63;5.13;;;20.60;99.90;;;;;;5044018;28;20778;-82
2023/08/11 07:51:14;;;;;;;5.82;5.28;;;20.60;99.90;;;;;;5034420;28;20040;-81
2023/08/11 07:53:40;;;;;;;5.80;4.85;;;20.70;99.90;;;;;;5046051;28;20045;-83
2023/08/11 07:56:05;;;;;;;6.22;5.22;;;20.80;99.90;;;;;;5047544;28;20037;-84
2023/08/11 07:58:32;;;;;;;5.82;4.53;;;20.90;99.90;;;;;;5019009;28;20044;-83
2023/08/11 08:00:57;;;;;;;7.05;4.65;;;21.00;99.90;;;;;;5052096;28;20492;-81
2023/08/11 08:03:23;;;;;;;10.65;4.75;;;21.10;99.90;;;;;;5039379;28;20048;-82
2023/08/11 08:05:49;;;;;;;5.55;4.15;;;21.20;99.90;;;;;;5062196;28;20049;-81
2023/08/11 08:08:15;;;;;;;6.95;4.20;;;21.30;99.90;;;;;;5056010;28;20066;-83
2023/08/11 08:10:42;;;;;;;7.95;4.43;;;21.40;99.90;;;;;;5046079;28;20036;-83
2023/08/11 08:13:07;;;;;;;6.28;4.80;;;21.60;99.90;;;;;;5038324;28;20024;-82
2023/08/11 08:15:33;;;;;;;5.97;4.45;;;21.60;99.90;;;;;;5036139;28;20059;-82
2023/08/11 08:17:59;;;;;;;6.38;4.65;;;21.60;99.90;;;;;;5036442;28;20361;-82
2023/08/11 08:20:25;;;;;;;8.70;5.13;;;21.70;99.90;;;;;;5053373;28;20040;-81
2023/08/11 08:22:50;;;;;;;5.00;4.50;;;21.80;99.90;;;;;;5035440;28;20090;-80
2023/08/11 08:25:16;;;;;;;6.72;5.35;;;21.90;99.90;;;;;;5035454;28;20049;-80
2023/08/11 08:27:43;;;;;;;5.38;4.70;;;22.00;99.90;;;;;;5022781;28;20037;-80
2023/08/11 08:30:10;;;;;;;5.78;4.88;;;22.10;99.90;;;;;;5057469;28;20049;-81
2023/08/11 08:32:37;;;;;;;6.53;5.38;;;22.10;99.90;;;;;;5029141;28;20044;-84
2023/08/11 08:35:03;;;;;;;7.22;5.00;;;22.10;99.90;;;;;;5035395;28;20056;-81
2023/08/11 08:37:31;;;;;;;7.20;4.88;;;22.20;99.90;;;;;;5034565;28;20047;-84
2023/08/11 08:39:57;;;;;;;5.65;4.82;;;22.40;99.90;;;;;;5018198;28;20057;-82
2023/08/11 08:42:25;;;;;;;6.13;4.90;;;22.40;99.90;;;;;;5039719;28;20045;-82
2023/08/11 08:44:52;;;;;;;5.53;5.03;;;22.40;99.90;;;;;;5033993;28;20044;-82
2023/08/11 08:47:20;;;;;;;5.03;4.53;;;22.50;99.90;;;;;;5036897;28;20124;-80
2023/08/11 08:49:48;;;;;;;5.50;4.55;;;22.60;99.90;;;;;;5064693;28;20128;-81
2023/08/11 08:52:15;;;;;;;5.30;4.80;;;22.60;99.90;;;;;;5017952;28;20056;-80
2023/08/11 08:54:41;;;;;;;5.85;4.18;;;22.70;99.90;;;;;;5043701;28;20040;-80
2023/08/11 08:57:10;;;;;;;4.95;4.43;;;22.80;99.90;;;;;;5047633;28;20072;-82
2023/08/11 08:59:37;;;;;;;6.00;4.35;;;22.80;99.90;;;;;;5051126;28;20530;-80
2023/08/11 09:02:03;;;;;;;5.07;4.57;;;22.90;99.90;;;;;;5057370;28;20462;-81
2023/08/11 09:04:30;;;;;;;4.90;4.28;;;23.00;99.90;;;;;;5056364;28;20051;-82
2023/08/11 09:06:56;;;;;;;8.07;5.03;;;23.00;99.90;;;;;;5049019;28;20036;-81
2023/08/11 09:09:23;;;;;;;4.93;4.43;;;23.10;99.90;;;;;;5034432;28;20044;-80
2023/08/11 09:11:49;;;;;;;7.55;4.35;;;23.20;99.90;;;;;;5047038;28;20040;-80
2023/08/11 09:14:17;;;;;;;5.05;4.55;;;23.40;99.90;;;;;;5035212;28;20037;-80
2023/08/11 09:16:43;;;;;;;5.60;4.43;;;23.40;99.90;;;;;;5051658;28;20041;-80
2023/08/11 09:19:11;;;;;;;4.03;3.67;;;23.50;99.90;;;;;;5054362;28;20047;-81
2023/08/11 09:21:39;;;;;;;5.55;4.00;;;23.50;99.90;;;;;;5041221;28;20041;-82
2023/08/11 09:24:10;;;;;;;5.90;4.15;;;23.60;99.90;;;;;;5028862;28;20048;-82
2023/08/11 09:26:36;;;;;;;5.50;4.15;;;23.70;99.90;;;;;;5050001;28;20041;-81
2023/08/11 09:29:04;;;;;;;7.18;4.13;;;23.80;99.90;;;;;;5022628;28;20032;-82
2023/08/11 09:31:30;;;;;;;6.40;3.92;;;23.90;99.90;;;;;;5040733;28;20048;-80
2023/08/11 09:33:56;;;;;;;4.47;3.60;;;24.00;99.90;;;;;;5009716;28;20357;-82
2023/08/11 09:36:21;;;;;;;4.72;3.97;;;24.10;99.90;;;;;;5052005;28;20488;-83
2023/08/11 09:38:48;;;;;;;7.90;4.05;;;24.20;99.90;;;;;;5050324;28;20044;-82
2023/08/11 09:41:15;;;;;;;5.85;4.28;;;24.20;99.90;;;;;;5049949;28;20033;-82
2023/08/11 09:43:48;;;;;;;7.65;4.30;;;24.30;99.90;;;;;;5049988;28;20041;-82
2023/08/11 09:46:14;;;;;;;4.85;4.15;;;24.40;99.90;;;;;;5060635;28;20388;-81
2023/08/11 09:48:39;;;;;;;5.88;3.85;;;24.30;99.90;;;;;;5051932;28;20049;-83
2023/08/11 09:51:10;;;;;;;7.82;4.40;;;24.40;99.90;;;;;;4998447;28;20541;-80
2023/08/11 09:53:40;;;;;;;5.20;4.13;;;24.40;99.90;;;;;;5034042;28;20039;-80
2023/08/11 09:56:08;;;;;;;7.30;4.50;;;24.40;99.90;;;;;;5034029;28;20040;-80
2023/08/11 09:58:39;;;;;;;4.85;3.97;;;24.50;99.90;;;;;;5039271;28;20500;-82
2023/08/11 10:01:11;;;;;;;4.80;4.13;;;24.50;99.90;;;;;;5036980;28;20392;-82
2023/08/11 10:03:44;;;;;;;4.85;4.07;;;24.60;99.90;;;;;;5049816;28;20697;-81
2023/08/11 10:06:13;;;;;;;7.20;4.30;;;24.70;99.90;;;;;;5037851;28;20124;-81
2023/08/11 10:08:40;;;;;;;5.43;4.28;;;24.70;99.90;;;;;;5033275;28;20515;-81
2023/08/11 10:11:06;;;;;;;4.00;3.60;;;24.80;99.90;;;;;;5051188;28;20037;-83
2023/08/11 10:13:33;;;;;;;4.57;3.45;;;24.90;99.90;;;;;;5055812;28;20041;-79
2023/08/11 10:16:00;;;;;;;4.25;3.58;;;25.00;99.90;;;;;;5047429;28;20041;-81
2023/08/11 10:18:27;;;;;;;4.65;3.80;;;25.00;99.90;;;;;;5050448;28;20703;-79
2023/08/11 10:20:53;;;;;;;5.28;4.03;;;25.10;99.90;;;;;;5053379;28;20041;-82
2023/08/11 10:23:19;;;;;;;7.07;3.63;;;25.20;99.90;;;;;;5049925;28;20407;-82
2023/08/11 10:25:46;;;;;;;5.93;3.50;;;25.20;99.90;;;;;;5049741;28;20041;-81
2023/08/11 10:28:13;;;;;;;5.30;3.17;;;25.30;99.90;;;;;;5000349;28;20049;-82
2023/08/11 10:30:40;;;;;;;5.40;4.13;;;25.30;99.90;;;;;;5032930;28;20091;-81
2023/08/11 10:33:08;;;;;;;4.53;3.45;;;25.40;99.90;;;;;;5033065;28;20388;-80
2023/08/11 10:35:54;;;;;;;6.50;3.33;;;25.50;99.90;;;;;;5019395;28;20523;-80
2023/08/11 10:38:24;;;;;;;6.93;3.97;;;25.50;99.90;;;;;;5036625;28;20103;-83
2023/08/11 10:40:54;;;;;;;5.22;3.25;;;25.60;99.90;;;;;;5053149;28;20040;-81
2023/08/11 10:43:29;;;;;;;4.05;3.20;;;25.70;99.90;;;;;;5053220;28;20082;-81
2023/08/11 10:45:55;;;;;;;5.03;3.20;;;25.80;99.90;;;;;;5037752;28;20572;-83
2023/08/11 10:48:25;;;;;;;4.07;3.25;;;25.80;99.90;;;;;;5028682;28;20188;-81
2023/08/11 10:50:50;;;;;;;3.28;2.97;;;25.80;99.90;;;;;;5051234;28;20127;-81
2023/08/11 10:53:23;;;;;;;5.20;3.03;;;25.90;99.90;;;;;;5037117;28;20120;-82
2023/08/11 10:56:00;;;;;;;4.50;3.45;;;25.90;99.90;;;;;;5036262;28;20037;-82
2023/08/11 10:58:30;;;;;;;4.57;3.28;;;26.00;99.90;;;;;;5035707;28;20044;-82
2023/08/11 11:00:58;;;;;;;6.10;3.60;;;26.10;99.90;;;;;;5021983;28;20067;-82
2023/08/11 11:03:23;;;;;;;4.97;3.20;;;26.20;99.90;;;;;;5035415;28;20075;-81
2023/08/11 11:05:50;;;;;;;6.13;3.60;;;26.30;99.90;;;;;;5052363;28;20041;-79
2023/08/11 11:08:15;;;;;;;4.20;3.35;;;26.30;99.90;;;;;;5040374;28;20099;-82
2023/08/11 11:10:41;;;;;;;4.38;3.47;;;26.30;99.90;;;;;;5036384;28;20488;-81
2023/08/11 11:13:07;;;;;;;3.00;2.75;;;26.30;99.90;;;;;;5036323;28;20115;-81
2023/08/11 11:15:34;;;;;;;4.97;3.67;;;26.30;99.90;;;;;;5053419;28;20123;-81
2023/08/11 11:17:59;;;;;;;3.95;3.42;;;26.30;99.90;;;;;;5052269;28;20052;-82
2023/08/11 11:20:26;;;;;;;4.13;3.17;;;26.40;99.90;;;;;;5050598;28;20048;-81
2023/08/11 11:22:53;;;;;;;4.45;3.00;;;26.60;99.90;;;;;;5036188;28;20485;-81
2023/08/11 11:25:20;;;;;;;3.95;2.90;;;26.60;99.90;;;;;;5035864;28;20047;-82
2023/08/11 11:28:51;;;;;;;4.30;2.63;;;26.60;99.90;;;;;;5035935;28;20040;-79
2023/08/11 11:31:18;;;;;;;5.55;3.28;;;26.70;99.90;;;;;;5067178;28;20438;-82
2023/08/11 11:33:45;;;;;;;5.88;2.88;;;26.70;99.90;;;;;;5036850;28;20094;-81
2023/08/11 11:36:12;;;;;;;4.80;3.13;;;26.90;99.90;;;;;;5052697;28;20124;-82
2023/08/11 11:38:39;;;;;;;4.47;2.95;;;26.90;99.90;;;;;;5052402;28;20124;-82
2023/08/11 11:41:13;;;;;;;6.55;3.20;;;27.00;99.90;;;;;;5052232;28;20083;-82
2023/08/11 11:43:39;;;;;;;4.22;3.00;;;27.10;99.90;;;;;;5035821;28;20041;-81
2023/08/11 11:46:14;;;;;;;5.80;2.90;;;27.10;99.90;;;;;;5052062;28;20750;-79
2023/08/11 11:48:53;;;;;;;4.90;2.90;;;27.10;99.90;;;;;;5034232;28;20119;-84
2023/08/11 11:51:30;;;;;;;4.05;3.10;;;27.20;99.90;;;;;;5041194;28;20045;-82
2023/08/11 11:53:58;;;;;;;3.92;2.92;;;27.30;99.90;;;;;;5068710;28;20029;-82
2023/08/11 11:56:28;;;;;;;3.53;2.80;;;27.10;99.90;;;;;;5063578;28;20036;-82
2023/08/11 11:58:55;;;;;;;4.07;2.90;;;27.10;99.90;;;;;;5035523;28;20059;-82
2023/08/11 12:01:25;;;;;;;3.28;2.90;;;27.10;99.90;;;;;;5045852;28;20045;-82
2023/08/11 12:03:52;;;;;;;7.32;2.90;;;27.30;99.90;;;;;;5035153;28;20106;-83
2023/08/11 12:06:19;;;;;;;4.10;2.55;;;27.10;99.90;;;;;;5035036;28;20041;-83
2023/08/11 12:08:45;;;;;;;5.95;2.78;;;27.10;99.90;;;;;;5034899;28;20106;-82
2023/08/11 12:11:12;;;;;;;4.72;2.90;;;27.00;99.90;;;;;;5036194;28;20124;-82
2023/08/11 12:13:43;;;;;;;5.00;2.45;;;27.00;99.90;;;;;;5034681;28;20044;-83
2023/08/11 12:16:10;;;;;;;4.22;2.60;;;27.10;99.90;;;;;;5052150;28;20068;-82
2023/08/11 12:18:38;;;;;;;5.57;2.78;;;27.10;99.90;;;;;;5030188;28;20485;-82
2023/08/11 12:21:06;;;;;;;4.15;2.70;;;27.10;99.90;;;;;;5041984;28;20052;-81
2023/08/11 12:23:31;;;;;;;6.68;3.25;;;27.30;99.90;;;;;;5050366;28;20495;-82
2023/08/11 12:25:58;;;;;;;4.35;3.08;;;27.40;99.90;;;;;;5040622;28;20048;-81
2023/08/11 12:28:24;;;;;;;3.97;3.10;;;27.60;99.90;;;;;;5013449;28;20040;-81
2023/08/11 12:30:49;;;;;;;4.90;2.72;;;27.60;99.90;;;;;;5041511;28;20028;-81
2023/08/11 12:33:16;;;;;;;4.97;2.97;;;27.70;99.90;;;;;;5034099;28;20072;-79
2023/08/11 12:35:42;;;;;;;5.10;2.85;;;27.70;99.90;;;;;;5050645;28;20519;-81
2023/08/11 12:38:12;;;;;;;5.43;2.92;;;27.80;99.90;;;;;;5034104;28;20498;-80